sensor_id;sensor_type;location;lat;lon;timestamp;P1;durP1;ratioP1;P2;durP2;ratioP2
71836;SDS011;59686;51.716;7.016;2023-03-19T00:00:15;5.50;;;5.00;;
71836;SDS011;59686;51.716;7.016;2023-03-19T00:02:41;5.28;;;4.75;;
71836;SDS011;59686;51.716;7.016;2023-03-19T00:05:13;5.82;;;4.68;;
71836;SDS011;59686;51.716;7.016;2023-03-19T00:07:40;6.40;;;4.97;;
71836;SDS011;59686;51.716;7.016;2023-03-19T00:10:05;5.95;;;5.35;;
71836;SDS011;59686;51.716;7.016;2023-03-19T00:12:31;6.40;;;5.07;;
71836;SDS011;59686;51.716;7.016;2023-03-19T00:14:57;5.95;;;5.18;;
71836;SDS011;59686;51.716;7.016;2023-03-19T00:17:22;5.45;;;4.95;;
71836;SDS011;59686;51.716;7.016;2023-03-19T00:19:48;5.80;;;5.20;;
71836;SDS011;59686;51.716;7.016;2023-03-19T00:22:14;5.28;;;4.78;;
71836;SDS011;59686;51.716;7.016;2023-03-19T00:24:41;5.43;;;4.93;;
71836;SDS011;59686;51.716;7.016;2023-03-19T00:27:07;5.55;;;5.05;;
71836;SDS011;59686;51.716;7.016;2023-03-19T00:29:33;5.43;;;4.93;;
71836;SDS011;59686;51.716;7.016;2023-03-19T00:31:58;6.38;;;5.38;;
71836;SDS011;59686;51.716;7.016;2023-03-19T00:34:25;5.28;;;4.78;;
71836;SDS011;59686;51.716;7.016;2023-03-19T00:36:51;5.65;;;5.03;;
71836;SDS011;59686;51.716;7.016;2023-03-19T00:39:16;5.60;;;5.00;;
71836;SDS011;59686;51.716;7.016;2023-03-19T00:41:42;7.03;;;5.00;;
71836;SDS011;59686;51.716;7.016;2023-03-19T00:44:14;5.30;;;4.80;;
71836;SDS011;59686;51.716;7.016;2023-03-19T00:46:42;5.78;;;4.90;;
71836;SDS011;59686;51.716;7.016;2023-03-19T00:49:08;5.68;;;5.07;;
71836;SDS011;59686;51.716;7.016;2023-03-19T00:51:33;5.20;;;4.65;;
71836;SDS011;59686;51.716;7.016;2023-03-19T00:54:04;6.07;;;4.70;;
71836;SDS011;59686;51.716;7.016;2023-03-19T00:56:30;5.75;;;5.05;;
71836;SDS011;59686;51.716;7.016;2023-03-19T00:58:56;5.82;;;4.68;;
71836;SDS011;59686;51.716;7.016;2023-03-19T01:01:21;7.43;;;5.15;;
71836;SDS011;59686;51.716;7.016;2023-03-19T01:03:47;6.45;;;5.10;;
71836;SDS011;59686;51.716;7.016;2023-03-19T01:06:13;6.18;;;4.70;;
71836;SDS011;59686;51.716;7.016;2023-03-19T01:08:39;7.85;;;4.85;;
71836;SDS011;59686;51.716;7.016;2023-03-19T01:11:06;5.38;;;4.80;;
71836;SDS011;59686;51.716;7.016;2023-03-19T01:13:35;5.28;;;4.78;;
71836;SDS011;59686;51.716;7.016;2023-03-19T01:16:01;5.65;;;4.45;;
71836;SDS011;59686;51.716;7.016;2023-03-19T01:18:27;7.20;;;4.82;;
71836;SDS011;59686;51.716;7.016;2023-03-19T01:20:53;5.20;;;4.70;;
71836;SDS011;59686;51.716;7.016;2023-03-19T01:23:21;5.07;;;4.53;;
71836;SDS011;59686;51.716;7.016;2023-03-19T01:25:47;5.38;;;4.63;;
71836;SDS011;59686;51.716;7.016;2023-03-19T01:28:13;6.05;;;4.93;;
71836;SDS011;59686;51.716;7.016;2023-03-19T01:30:38;4.70;;;4.20;;
71836;SDS011;59686;51.716;7.016;2023-03-19T01:33:05;6.70;;;4.30;;
71836;SDS011;59686;51.716;7.016;2023-03-19T01:35:31;5.13;;;4.50;;
71836;SDS011;59686;51.716;7.016;2023-03-19T01:37:57;5.25;;;4.57;;
71836;SDS011;59686;51.716;7.016;2023-03-19T01:40:23;5.40;;;4.43;;
71836;SDS011;59686;51.716;7.016;2023-03-19T01:43:23;4.35;;;3.95;;
71836;SDS011;59686;51.716;7.016;2023-03-19T01:45:44;4.82;;;4.13;;
71836;SDS011;59686;51.716;7.016;2023-03-19T01:48:23;7.07;;;4.90;;
71836;SDS011;59686;51.716;7.016;2023-03-19T01:51:03;4.63;;;4.13;;
71836;SDS011;59686;51.716;7.016;2023-03-19T01:53:31;5.72;;;4.70;;
71836;SDS011;59686;51.716;7.016;2023-03-19T01:56:02;4.70;;;4.20;;
71836;SDS011;59686;51.716;7.016;2023-03-19T01:58:38;6.22;;;4.68;;
71836;SDS011;59686;51.716;7.016;2023-03-19T02:01:05;4.93;;;4.40;;
71836;SDS011;59686;51.716;7.016;2023-03-19T02:03:32;4.55;;;4.15;;
71836;SDS011;59686;51.716;7.016;2023-03-19T02:05:58;4.90;;;4.20;;
71836;SDS011;59686;51.716;7.016;2023-03-19T02:08:26;5.82;;;4.57;;
71836;SDS011;59686;51.716;7.016;2023-03-19T02:10:53;4.97;;;4.47;;
71836;SDS011;59686;51.716;7.016;2023-03-19T02:13:20;4.75;;;4.30;;
71836;SDS011;59686;51.716;7.016;2023-03-19T02:15:47;4.88;;;4.32;;
71836;SDS011;59686;51.716;7.016;2023-03-19T02:18:13;5.35;;;4.18;;
71836;SDS011;59686;51.716;7.016;2023-03-19T02:23:20;5.00;;;4.50;;
71836;SDS011;59686;51.716;7.016;2023-03-19T02:26:03;5.38;;;4.25;;
71836;SDS011;59686;51.716;7.016;2023-03-19T02:28:32;5.28;;;3.92;;
71836;SDS011;59686;51.716;7.016;2023-03-19T02:31:01;5.47;;;4.22;;
71836;SDS011;59686;51.716;7.016;2023-03-19T02:33:26;4.78;;;4.28;;
71836;SDS011;59686;51.716;7.016;2023-03-19T02:35:52;5.30;;;4.50;;
71836;SDS011;59686;51.716;7.016;2023-03-19T02:38:19;4.57;;;4.18;;
71836;SDS011;59686;51.716;7.016;2023-03-19T02:40:54;4.55;;;4.15;;
71836;SDS011;59686;51.716;7.016;2023-03-19T02:43:27;4.53;;;4.10;;
71836;SDS011;59686;51.716;7.016;2023-03-19T02:45:54;5.55;;;4.13;;
71836;SDS011;59686;51.716;7.016;2023-03-19T02:48:20;5.53;;;4.13;;
71836;SDS011;59686;51.716;7.016;2023-03-19T02:50:46;4.40;;;4.00;;
71836;SDS011;59686;51.716;7.016;2023-03-19T02:53:12;4.82;;;4.20;;
71836;SDS011;59686;51.716;7.016;2023-03-19T02:55:38;5.10;;;4.43;;
71836;SDS011;59686;51.716;7.016;2023-03-19T02:58:03;4.57;;;4.07;;
71836;SDS011;59686;51.716;7.016;2023-03-19T03:00:30;5.93;;;4.30;;
71836;SDS011;59686;51.716;7.016;2023-03-19T03:02:57;5.47;;;4.50;;
71836;SDS011;59686;51.716;7.016;2023-03-19T03:05:23;5.32;;;4.53;;
71836;SDS011;59686;51.716;7.016;2023-03-19T03:07:49;4.40;;;3.40;;
71836;SDS011;59686;51.716;7.016;2023-03-19T03:10:18;5.25;;;4.35;;
71836;SDS011;59686;51.716;7.016;2023-03-19T03:12:43;5.18;;;4.13;;
71836;SDS011;59686;51.716;7.016;2023-03-19T03:15:10;5.45;;;4.00;;
71836;SDS011;59686;51.716;7.016;2023-03-19T03:17:40;4.53;;;3.92;;
71836;SDS011;59686;51.716;7.016;2023-03-19T03:20:09;4.50;;;3.70;;
71836;SDS011;59686;51.716;7.016;2023-03-19T03:22:37;5.60;;;4.00;;
71836;SDS011;59686;51.716;7.016;2023-03-19T03:25:05;4.10;;;3.70;;
71836;SDS011;59686;51.716;7.016;2023-03-19T03:27:31;3.90;;;3.53;;
71836;SDS011;59686;51.716;7.016;2023-03-19T03:29:57;3.88;;;3.50;;
71836;SDS011;59686;51.716;7.016;2023-03-19T03:32:23;3.78;;;3.45;;
71836;SDS011;59686;51.716;7.016;2023-03-19T03:34:49;5.65;;;4.22;;
71836;SDS011;59686;51.716;7.016;2023-03-19T03:37:15;3.97;;;3.50;;
71836;SDS011;59686;51.716;7.016;2023-03-19T03:39:41;5.15;;;4.20;;
71836;SDS011;59686;51.716;7.016;2023-03-19T03:42:07;4.40;;;3.47;;
71836;SDS011;59686;51.716;7.016;2023-03-19T03:44:35;3.60;;;3.17;;
71836;SDS011;59686;51.716;7.016;2023-03-19T03:47:01;4.28;;;3.67;;
71836;SDS011;59686;51.716;7.016;2023-03-19T03:49:27;4.47;;;3.60;;
71836;SDS011;59686;51.716;7.016;2023-03-19T03:51:53;4.95;;;3.70;;
71836;SDS011;59686;51.716;7.016;2023-03-19T03:54:18;3.78;;;3.35;;
71836;SDS011;59686;51.716;7.016;2023-03-19T03:56:45;3.70;;;3.35;;
71836;SDS011;59686;51.716;7.016;2023-03-19T03:59:11;3.85;;;3.30;;
71836;SDS011;59686;51.716;7.016;2023-03-19T04:01:36;4.15;;;3.60;;
71836;SDS011;59686;51.716;7.016;2023-03-19T04:04:02;4.90;;;3.55;;
71836;SDS011;59686;51.716;7.016;2023-03-19T04:06:28;4.55;;;3.70;;
71836;SDS011;59686;51.716;7.016;2023-03-19T04:08:54;4.15;;;3.60;;
71836;SDS011;59686;51.716;7.016;2023-03-19T04:11:24;4.13;;;3.70;;
71836;SDS011;59686;51.716;7.016;2023-03-19T04:13:50;4.63;;;3.70;;
71836;SDS011;59686;51.716;7.016;2023-03-19T04:16:18;5.95;;;3.60;;
71836;SDS011;59686;51.716;7.016;2023-03-19T04:18:43;3.83;;;3.42;;
71836;SDS011;59686;51.716;7.016;2023-03-19T04:21:09;3.55;;;3.25;;
71836;SDS011;59686;51.716;7.016;2023-03-19T04:23:35;4.05;;;3.22;;
71836;SDS011;59686;51.716;7.016;2023-03-19T04:26:01;4.47;;;3.33;;
71836;SDS011;59686;51.716;7.016;2023-03-19T04:28:30;3.97;;;3.53;;
71836;SDS011;59686;51.716;7.016;2023-03-19T04:30:59;4.15;;;3.40;;
71836;SDS011;59686;51.716;7.016;2023-03-19T04:33:29;6.57;;;3.40;;
71836;SDS011;59686;51.716;7.016;2023-03-19T04:35:56;4.10;;;3.25;;
71836;SDS011;59686;51.716;7.016;2023-03-19T04:38:22;3.25;;;2.83;;
71836;SDS011;59686;51.716;7.016;2023-03-19T04:40:50;3.45;;;3.15;;
71836;SDS011;59686;51.716;7.016;2023-03-19T04:43:17;3.90;;;3.50;;
71836;SDS011;59686;51.716;7.016;2023-03-19T04:45:43;4.60;;;3.60;;
71836;SDS011;59686;51.716;7.016;2023-03-19T04:48:09;4.20;;;3.80;;
71836;SDS011;59686;51.716;7.016;2023-03-19T04:50:35;5.10;;;3.70;;
71836;SDS011;59686;51.716;7.016;2023-03-19T04:53:01;3.67;;;3.08;;
71836;SDS011;59686;51.716;7.016;2023-03-19T04:55:27;4.00;;;3.50;;
71836;SDS011;59686;51.716;7.016;2023-03-19T04:57:52;4.30;;;3.40;;
71836;SDS011;59686;51.716;7.016;2023-03-19T05:00:18;4.05;;;3.55;;
71836;SDS011;59686;51.716;7.016;2023-03-19T05:02:44;4.15;;;3.47;;
71836;SDS011;59686;51.716;7.016;2023-03-19T05:05:11;4.68;;;3.20;;
71836;SDS011;59686;51.716;7.016;2023-03-19T05:07:38;3.92;;;3.38;;
71836;SDS011;59686;51.716;7.016;2023-03-19T05:10:05;3.72;;;3.28;;
71836;SDS011;59686;51.716;7.016;2023-03-19T05:12:32;3.85;;;3.40;;
71836;SDS011;59686;51.716;7.016;2023-03-19T05:14:58;4.15;;;3.50;;
71836;SDS011;59686;51.716;7.016;2023-03-19T05:17:23;3.80;;;3.50;;
71836;SDS011;59686;51.716;7.016;2023-03-19T05:19:49;7.70;;;3.55;;
71836;SDS011;59686;51.716;7.016;2023-03-19T05:22:16;4.30;;;3.88;;
71836;SDS011;59686;51.716;7.016;2023-03-19T05:24:43;3.35;;;3.03;;
71836;SDS011;59686;51.716;7.016;2023-03-19T05:27:10;5.35;;;3.42;;
71836;SDS011;59686;51.716;7.016;2023-03-19T05:29:36;3.80;;;3.40;;
71836;SDS011;59686;51.716;7.016;2023-03-19T05:32:02;4.57;;;3.50;;
71836;SDS011;59686;51.716;7.016;2023-03-19T05:34:28;4.63;;;3.60;;
71836;SDS011;59686;51.716;7.016;2023-03-19T05:36:54;4.80;;;3.58;;
71836;SDS011;59686;51.716;7.016;2023-03-19T05:39:20;3.85;;;3.20;;
71836;SDS011;59686;51.716;7.016;2023-03-19T05:41:46;3.60;;;3.20;;
71836;SDS011;59686;51.716;7.016;2023-03-19T05:44:11;3.53;;;3.22;;
71836;SDS011;59686;51.716;7.016;2023-03-19T05:46:37;3.92;;;3.30;;
71836;SDS011;59686;51.716;7.016;2023-03-19T05:49:03;4.10;;;3.67;;
71836;SDS011;59686;51.716;7.016;2023-03-19T05:51:34;3.75;;;3.33;;
71836;SDS011;59686;51.716;7.016;2023-03-19T05:54:00;4.03;;;3.60;;
71836;SDS011;59686;51.716;7.016;2023-03-19T05:56:27;5.70;;;3.60;;
71836;SDS011;59686;51.716;7.016;2023-03-19T05:58:54;5.68;;;3.78;;
71836;SDS011;59686;51.716;7.016;2023-03-19T06:01:20;5.38;;;3.70;;
71836;SDS011;59686;51.716;7.016;2023-03-19T06:03:46;4.43;;;3.53;;
71836;SDS011;59686;51.716;7.016;2023-03-19T06:06:12;4.75;;;3.42;;
71836;SDS011;59686;51.716;7.016;2023-03-19T06:08:38;3.75;;;3.45;;
71836;SDS011;59686;51.716;7.016;2023-03-19T06:11:04;5.25;;;3.58;;
71836;SDS011;59686;51.716;7.016;2023-03-19T06:13:30;4.13;;;3.40;;
71836;SDS011;59686;51.716;7.016;2023-03-19T06:15:56;3.65;;;3.00;;
71836;SDS011;59686;51.716;7.016;2023-03-19T06:18:21;4.90;;;3.40;;
71836;SDS011;59686;51.716;7.016;2023-03-19T06:20:47;4.45;;;3.00;;
71836;SDS011;59686;51.716;7.016;2023-03-19T06:23:13;5.40;;;3.50;;
71836;SDS011;59686;51.716;7.016;2023-03-19T06:25:39;6.32;;;3.83;;
71836;SDS011;59686;51.716;7.016;2023-03-19T06:28:05;4.40;;;3.33;;
71836;SDS011;59686;51.716;7.016;2023-03-19T06:30:31;3.90;;;3.47;;
71836;SDS011;59686;51.716;7.016;2023-03-19T06:32:57;4.15;;;3.50;;
71836;SDS011;59686;51.716;7.016;2023-03-19T06:35:23;4.30;;;3.38;;
71836;SDS011;59686;51.716;7.016;2023-03-19T06:37:49;4.47;;;3.70;;
71836;SDS011;59686;51.716;7.016;2023-03-19T06:40:21;4.72;;;3.63;;
71836;SDS011;59686;51.716;7.016;2023-03-19T06:42:47;4.60;;;3.30;;
71836;SDS011;59686;51.716;7.016;2023-03-19T06:45:13;5.30;;;3.30;;
71836;SDS011;59686;51.716;7.016;2023-03-19T06:47:44;5.43;;;3.83;;
71836;SDS011;59686;51.716;7.016;2023-03-19T06:50:11;4.32;;;3.50;;
71836;SDS011;59686;51.716;7.016;2023-03-19T06:52:39;6.25;;;3.50;;
71836;SDS011;59686;51.716;7.016;2023-03-19T06:55:05;5.43;;;3.70;;
71836;SDS011;59686;51.716;7.016;2023-03-19T06:57:36;5.53;;;3.90;;
71836;SDS011;59686;51.716;7.016;2023-03-19T07:00:02;7.57;;;5.55;;
71836;SDS011;59686;51.716;7.016;2023-03-19T07:02:29;5.57;;;4.45;;
71836;SDS011;59686;51.716;7.016;2023-03-19T07:04:56;6.18;;;4.78;;
71836;SDS011;59686;51.716;7.016;2023-03-19T07:07:22;7.25;;;4.45;;
71836;SDS011;59686;51.716;7.016;2023-03-19T07:09:48;6.45;;;4.45;;
71836;SDS011;59686;51.716;7.016;2023-03-19T07:12:13;6.05;;;4.22;;
71836;SDS011;59686;51.716;7.016;2023-03-19T07:14:39;5.05;;;4.10;;
71836;SDS011;59686;51.716;7.016;2023-03-19T07:17:05;5.32;;;4.07;;
71836;SDS011;59686;51.716;7.016;2023-03-19T07:19:31;7.60;;;4.72;;
71836;SDS011;59686;51.716;7.016;2023-03-19T07:21:56;6.40;;;4.78;;
71836;SDS011;59686;51.716;7.016;2023-03-19T07:24:25;7.80;;;5.38;;
71836;SDS011;59686;51.716;7.016;2023-03-19T07:26:51;6.07;;;4.70;;
71836;SDS011;59686;51.716;7.016;2023-03-19T07:29:17;8.23;;;5.75;;
71836;SDS011;59686;51.716;7.016;2023-03-19T07:31:42;8.10;;;5.43;;
71836;SDS011;59686;51.716;7.016;2023-03-19T07:34:09;7.38;;;5.15;;
71836;SDS011;59686;51.716;7.016;2023-03-19T07:36:35;8.00;;;5.80;;
71836;SDS011;59686;51.716;7.016;2023-03-19T07:39:03;8.23;;;5.90;;
71836;SDS011;59686;51.716;7.016;2023-03-19T07:41:33;7.55;;;5.40;;
71836;SDS011;59686;51.716;7.016;2023-03-19T07:43:59;7.55;;;5.50;;
71836;SDS011;59686;51.716;7.016;2023-03-19T07:46:26;7.38;;;5.53;;
71836;SDS011;59686;51.716;7.016;2023-03-19T07:48:52;9.80;;;5.72;;
71836;SDS011;59686;51.716;7.016;2023-03-19T07:51:18;8.98;;;6.18;;
71836;SDS011;59686;51.716;7.016;2023-03-19T07:53:45;8.18;;;5.88;;
71836;SDS011;59686;51.716;7.016;2023-03-19T07:56:11;7.53;;;5.38;;
71836;SDS011;59686;51.716;7.016;2023-03-19T07:58:37;7.10;;;6.20;;
71836;SDS011;59686;51.716;7.016;2023-03-19T08:01:03;10.55;;;6.72;;
71836;SDS011;59686;51.716;7.016;2023-03-19T08:03:29;9.75;;;6.15;;
71836;SDS011;59686;51.716;7.016;2023-03-19T08:05:55;7.95;;;5.68;;
71836;SDS011;59686;51.716;7.016;2023-03-19T08:08:21;9.35;;;5.97;;
71836;SDS011;59686;51.716;7.016;2023-03-19T08:10:47;7.55;;;5.55;;
71836;SDS011;59686;51.716;7.016;2023-03-19T08:13:14;9.38;;;5.80;;
71836;SDS011;59686;51.716;7.016;2023-03-19T08:15:40;6.93;;;5.05;;
71836;SDS011;59686;51.716;7.016;2023-03-19T08:18:06;8.13;;;5.88;;
71836;SDS011;59686;51.716;7.016;2023-03-19T08:20:33;6.80;;;4.97;;
71836;SDS011;59686;51.716;7.016;2023-03-19T08:22:59;5.38;;;4.88;;
71836;SDS011;59686;51.716;7.016;2023-03-19T08:25:24;8.48;;;5.72;;
71836;SDS011;59686;51.716;7.016;2023-03-19T08:27:51;7.97;;;5.20;;
71836;SDS011;59686;51.716;7.016;2023-03-19T08:30:17;9.32;;;5.95;;
71836;SDS011;59686;51.716;7.016;2023-03-19T08:32:43;7.72;;;5.53;;
71836;SDS011;59686;51.716;7.016;2023-03-19T08:35:11;7.60;;;5.63;;
71836;SDS011;59686;51.716;7.016;2023-03-19T08:37:38;5.40;;;4.85;;
71836;SDS011;59686;51.716;7.016;2023-03-19T08:40:03;6.95;;;4.78;;
71836;SDS011;59686;51.716;7.016;2023-03-19T08:42:30;6.85;;;5.43;;
71836;SDS011;59686;51.716;7.016;2023-03-19T08:44:55;7.55;;;5.15;;
71836;SDS011;59686;51.716;7.016;2023-03-19T08:47:21;8.88;;;5.28;;
71836;SDS011;59686;51.716;7.016;2023-03-19T08:49:48;8.27;;;5.47;;
71836;SDS011;59686;51.716;7.016;2023-03-19T08:52:15;6.90;;;5.25;;
71836;SDS011;59686;51.716;7.016;2023-03-19T08:54:45;7.15;;;5.35;;
71836;SDS011;59686;51.716;7.016;2023-03-19T08:57:10;6.32;;;5.35;;
71836;SDS011;59686;51.716;7.016;2023-03-19T08:59:37;6.28;;;5.10;;
71836;SDS011;59686;51.716;7.016;2023-03-19T09:02:02;6.53;;;5.40;;
71836;SDS011;59686;51.716;7.016;2023-03-19T09:04:28;8.82;;;6.03;;
71836;SDS011;59686;51.716;7.016;2023-03-19T09:06:54;8.10;;;5.95;;
71836;SDS011;59686;51.716;7.016;2023-03-19T09:09:23;7.03;;;6.07;;
71836;SDS011;59686;51.716;7.016;2023-03-19T09:11:49;8.68;;;6.13;;
71836;SDS011;59686;51.716;7.016;2023-03-19T09:14:15;6.88;;;5.50;;
71836;SDS011;59686;51.716;7.016;2023-03-19T09:16:43;9.35;;;6.00;;
71836;SDS011;59686;51.716;7.016;2023-03-19T09:19:09;9.02;;;6.28;;
71836;SDS011;59686;51.716;7.016;2023-03-19T09:21:35;7.97;;;6.15;;
71836;SDS011;59686;51.716;7.016;2023-03-19T09:24:01;8.85;;;6.32;;
71836;SDS011;59686;51.716;7.016;2023-03-19T09:26:27;9.52;;;6.22;;
71836;SDS011;59686;51.716;7.016;2023-03-19T09:28:53;8.32;;;6.53;;
71836;SDS011;59686;51.716;7.016;2023-03-19T09:31:18;9.35;;;7.10;;
71836;SDS011;59686;51.716;7.016;2023-03-19T09:33:44;9.57;;;6.72;;
71836;SDS011;59686;51.716;7.016;2023-03-19T09:36:10;10.80;;;7.25;;
71836;SDS011;59686;51.716;7.016;2023-03-19T09:38:36;8.82;;;7.10;;
71836;SDS011;59686;51.716;7.016;2023-03-19T09:46:25;10.02;;;7.63;;
71836;SDS011;59686;51.716;7.016;2023-03-19T09:49:11;8.77;;;7.60;;
71836;SDS011;59686;51.716;7.016;2023-03-19T09:51:52;9.93;;;8.20;;
71836;SDS011;59686;51.716;7.016;2023-03-19T09:54:29;10.48;;;7.97;;
71836;SDS011;59686;51.716;7.016;2023-03-19T09:57:07;9.95;;;8.27;;
71836;SDS011;59686;51.716;7.016;2023-03-19T09:59:33;10.15;;;8.07;;
71836;SDS011;59686;51.716;7.016;2023-03-19T10:02:42;10.18;;;8.50;;
71836;SDS011;59686;51.716;7.016;2023-03-19T10:13:14;9.65;;;8.65;;
71836;SDS011;59686;51.716;7.016;2023-03-19T10:15:54;9.98;;;8.52;;
71836;SDS011;59686;51.716;7.016;2023-03-19T10:18:22;13.48;;;9.07;;
71836;SDS011;59686;51.716;7.016;2023-03-19T10:21:05;11.07;;;8.65;;
71836;SDS011;59686;51.716;7.016;2023-03-19T10:23:41;10.77;;;9.63;;
71836;SDS011;59686;51.716;7.016;2023-03-19T10:26:16;9.90;;;8.73;;
71836;SDS011;59686;51.716;7.016;2023-03-19T10:28:45;9.43;;;8.52;;
71836;SDS011;59686;51.716;7.016;2023-03-19T10:31:26;11.25;;;9.25;;
71836;SDS011;59686;51.716;7.016;2023-03-19T10:36:26;11.13;;;9.48;;
71836;SDS011;59686;51.716;7.016;2023-03-19T10:38:58;12.55;;;10.65;;
71836;SDS011;59686;51.716;7.016;2023-03-19T10:44:02;12.93;;;10.93;;
71836;SDS011;59686;51.716;7.016;2023-03-19T10:46:41;13.50;;;11.52;;
71836;SDS011;59686;51.716;7.016;2023-03-19T10:49:10;13.93;;;11.93;;
71836;SDS011;59686;51.716;7.016;2023-03-19T10:51:37;13.77;;;12.27;;
71836;SDS011;59686;51.716;7.016;2023-03-19T10:54:12;16.60;;;13.63;;
71836;SDS011;59686;51.716;7.016;2023-03-19T10:56:48;14.35;;;11.93;;
71836;SDS011;59686;51.716;7.016;2023-03-19T10:59:35;16.70;;;13.75;;
71836;SDS011;59686;51.716;7.016;2023-03-19T11:02:24;15.93;;;13.63;;
71836;SDS011;59686;51.716;7.016;2023-03-19T11:05:04;18.20;;;14.52;;
71836;SDS011;59686;51.716;7.016;2023-03-19T11:07:56;15.70;;;14.05;;
71836;SDS011;59686;51.716;7.016;2023-03-19T11:10:30;16.30;;;14.48;;
71836;SDS011;59686;51.716;7.016;2023-03-19T11:12:59;15.23;;;13.55;;
71836;SDS011;59686;51.716;7.016;2023-03-19T11:15:33;17.50;;;14.35;;
71836;SDS011;59686;51.716;7.016;2023-03-19T11:20:47;16.20;;;14.35;;
71836;SDS011;59686;51.716;7.016;2023-03-19T11:23:18;16.05;;;14.18;;
71836;SDS011;59686;51.716;7.016;2023-03-19T11:25:46;15.70;;;14.02;;
71836;SDS011;59686;51.716;7.016;2023-03-19T11:28:17;15.68;;;13.98;;
71836;SDS011;59686;51.716;7.016;2023-03-19T11:33:37;15.65;;;13.93;;
71836;SDS011;59686;51.716;7.016;2023-03-19T11:47:51;15.02;;;12.63;;
71836;SDS011;59686;51.716;7.016;2023-03-19T11:50:48;13.75;;;12.32;;
71836;SDS011;59686;51.716;7.016;2023-03-19T11:53:50;14.30;;;12.10;;
71836;SDS011;59686;51.716;7.016;2023-03-19T12:06:16;12.85;;;11.48;;
71836;SDS011;59686;51.716;7.016;2023-03-19T12:09:10;13.13;;;11.55;;
71836;SDS011;59686;51.716;7.016;2023-03-19T12:12:25;12.55;;;11.25;;
71836;SDS011;59686;51.716;7.016;2023-03-19T12:37:41;10.50;;;9.40;;
71836;SDS011;59686;51.716;7.016;2023-03-19T12:43:33;9.63;;;8.52;;
71836;SDS011;59686;51.716;7.016;2023-03-19T12:46:35;9.30;;;8.35;;
71836;SDS011;59686;51.716;7.016;2023-03-19T12:49:32;10.70;;;8.80;;
71836;SDS011;59686;51.716;7.016;2023-03-19T13:01:26;8.88;;;7.97;;
71836;SDS011;59686;51.716;7.016;2023-03-19T13:07:10;8.65;;;7.80;;
71836;SDS011;59686;51.716;7.016;2023-03-19T13:10:07;8.82;;;7.93;;
71836;SDS011;59686;51.716;7.016;2023-03-19T13:12:58;8.65;;;7.57;;
71836;SDS011;59686;51.716;7.016;2023-03-19T13:16:13;8.00;;;7.20;;
71836;SDS011;59686;51.716;7.016;2023-03-19T13:19:16;7.95;;;7.15;;
71836;SDS011;59686;51.716;7.016;2023-03-19T13:22:08;8.05;;;7.00;;
71836;SDS011;59686;51.716;7.016;2023-03-19T13:24:59;8.48;;;7.07;;
71836;SDS011;59686;51.716;7.016;2023-03-19T13:27:53;7.95;;;7.15;;
71836;SDS011;59686;51.716;7.016;2023-03-19T13:30:41;7.63;;;6.75;;
71836;SDS011;59686;51.716;7.016;2023-03-19T13:33:59;7.80;;;7.05;;
71836;SDS011;59686;51.716;7.016;2023-03-19T13:39:44;7.50;;;6.70;;
71836;SDS011;59686;51.716;7.016;2023-03-19T13:42:36;7.07;;;6.38;;
71836;SDS011;59686;51.716;7.016;2023-03-19T13:45:36;7.18;;;6.07;;
71836;SDS011;59686;51.716;7.016;2023-03-19T13:54:04;7.32;;;6.55;;
71836;SDS011;59686;51.716;7.016;2023-03-19T13:59:48;6.60;;;6.00;;
71836;SDS011;59686;51.716;7.016;2023-03-19T14:05:24;6.65;;;6.00;;
71836;SDS011;59686;51.716;7.016;2023-03-19T14:08:31;5.95;;;5.43;;
71836;SDS011;59686;51.716;7.016;2023-03-19T14:11:28;6.00;;;5.38;;
71836;SDS011;59686;51.716;7.016;2023-03-19T14:14:17;6.38;;;5.15;;
71836;SDS011;59686;51.716;7.016;2023-03-19T14:17:12;5.63;;;5.10;;
71836;SDS011;59686;51.716;7.016;2023-03-19T14:23:21;7.18;;;5.60;;
71836;SDS011;59686;51.716;7.016;2023-03-19T14:26:14;5.07;;;4.47;;
71836;SDS011;59686;51.716;7.016;2023-03-19T14:29:13;5.50;;;4.70;;
71836;SDS011;59686;51.716;7.016;2023-03-19T14:32:00;5.38;;;4.50;;
71836;SDS011;59686;51.716;7.016;2023-03-19T14:34:52;4.40;;;3.95;;
71836;SDS011;59686;51.716;7.016;2023-03-19T14:37:43;4.40;;;4.00;;
71836;SDS011;59686;51.716;7.016;2023-03-19T14:40:43;6.07;;;3.95;;
71836;SDS011;59686;51.716;7.016;2023-03-19T14:43:38;4.35;;;3.70;;
71836;SDS011;59686;51.716;7.016;2023-03-19T14:49:49;4.13;;;3.38;;
71836;SDS011;59686;51.716;7.016;2023-03-19T14:55:49;4.38;;;3.60;;
71836;SDS011;59686;51.716;7.016;2023-03-19T14:58:37;4.70;;;3.15;;
71836;SDS011;59686;51.716;7.016;2023-03-19T15:01:33;4.15;;;3.22;;
71836;SDS011;59686;51.716;7.016;2023-03-19T15:04:27;4.43;;;3.10;;
71836;SDS011;59686;51.716;7.016;2023-03-19T15:07:17;4.07;;;3.10;;
71836;SDS011;59686;51.716;7.016;2023-03-19T15:10:06;3.28;;;2.97;;
71836;SDS011;59686;51.716;7.016;2023-03-19T15:13:14;3.63;;;3.28;;
71836;SDS011;59686;51.716;7.016;2023-03-19T15:16:22;4.53;;;2.42;;
71836;SDS011;59686;51.716;7.016;2023-03-19T15:19:16;3.80;;;2.85;;
71836;SDS011;59686;51.716;7.016;2023-03-19T15:22:11;3.10;;;2.75;;
71836;SDS011;59686;51.716;7.016;2023-03-19T15:28:09;3.35;;;2.60;;
71836;SDS011;59686;51.716;7.016;2023-03-19T15:30:58;2.85;;;2.55;;
71836;SDS011;59686;51.716;7.016;2023-03-19T15:33:44;4.45;;;3.05;;
71836;SDS011;59686;51.716;7.016;2023-03-19T15:36:30;3.40;;;2.72;;
71836;SDS011;59686;51.716;7.016;2023-03-19T15:39:18;5.00;;;3.38;;
71836;SDS011;59686;51.716;7.016;2023-03-19T15:42:08;4.05;;;2.90;;
71836;SDS011;59686;51.716;7.016;2023-03-19T15:44:56;4.00;;;2.88;;
71836;SDS011;59686;51.716;7.016;2023-03-19T15:48:14;4.07;;;3.03;;
71836;SDS011;59686;51.716;7.016;2023-03-19T15:51:06;3.55;;;2.72;;
71836;SDS011;59686;51.716;7.016;2023-03-19T15:53:54;2.95;;;2.50;;
71836;SDS011;59686;51.716;7.016;2023-03-19T15:56:40;3.22;;;2.60;;
71836;SDS011;59686;51.716;7.016;2023-03-19T15:59:27;3.13;;;2.30;;
71836;SDS011;59686;51.716;7.016;2023-03-19T16:02:50;2.67;;;2.30;;
71836;SDS011;59686;51.716;7.016;2023-03-19T16:05:31;3.30;;;2.33;;
71836;SDS011;59686;51.716;7.016;2023-03-19T16:08:22;2.60;;;2.20;;
71836;SDS011;59686;51.716;7.016;2023-03-19T16:11:14;2.90;;;2.30;;
71836;SDS011;59686;51.716;7.016;2023-03-19T16:14:01;3.33;;;2.10;;
71836;SDS011;59686;51.716;7.016;2023-03-19T16:16:59;2.72;;;2.15;;
71836;SDS011;59686;51.716;7.016;2023-03-19T16:19:54;4.03;;;2.03;;
71836;SDS011;59686;51.716;7.016;2023-03-19T16:22:48;3.45;;;1.83;;
71836;SDS011;59686;51.716;7.016;2023-03-19T16:25:42;3.70;;;2.25;;
71836;SDS011;59686;51.716;7.016;2023-03-19T16:28:30;3.67;;;1.80;;
71836;SDS011;59686;51.716;7.016;2023-03-19T16:31:21;3.67;;;2.03;;
71836;SDS011;59686;51.716;7.016;2023-03-19T16:34:27;2.28;;;1.83;;
71836;SDS011;59686;51.716;7.016;2023-03-19T16:43:05;3.05;;;2.00;;
71836;SDS011;59686;51.716;7.016;2023-03-19T16:46:03;4.18;;;2.05;;
71836;SDS011;59686;51.716;7.016;2023-03-19T16:48:51;2.70;;;1.83;;
71836;SDS011;59686;51.716;7.016;2023-03-19T16:51:38;3.92;;;1.98;;
71836;SDS011;59686;51.716;7.016;2023-03-19T16:54:25;3.15;;;2.08;;
71836;SDS011;59686;51.716;7.016;2023-03-19T16:57:11;4.63;;;1.92;;
71836;SDS011;59686;51.716;7.016;2023-03-19T16:59:59;2.83;;;1.85;;
71836;SDS011;59686;51.716;7.016;2023-03-19T17:02:45;4.47;;;1.70;;
71836;SDS011;59686;51.716;7.016;2023-03-19T17:05:31;2.78;;;2.10;;
71836;SDS011;59686;51.716;7.016;2023-03-19T17:08:18;3.42;;;1.90;;
71836;SDS011;59686;51.716;7.016;2023-03-19T17:11:06;3.45;;;2.22;;
71836;SDS011;59686;51.716;7.016;2023-03-19T17:14:12;3.22;;;1.85;;
71836;SDS011;59686;51.716;7.016;2023-03-19T17:17:03;4.45;;;2.15;;
71836;SDS011;59686;51.716;7.016;2023-03-19T17:19:57;3.13;;;1.90;;
71836;SDS011;59686;51.716;7.016;2023-03-19T17:22:43;2.25;;;1.95;;
71836;SDS011;59686;51.716;7.016;2023-03-19T17:25:29;3.90;;;2.22;;